createdAt,value
2019-05-19T00:02:08.411Z,18.29
2019-05-19T00:04:40.204Z,18.27
2019-05-19T00:07:11.962Z,18.19
2019-05-19T00:09:43.619Z,18.20
2019-05-19T00:12:15.371Z,18.20
2019-05-19T00:14:46.984Z,18.13
2019-05-19T00:17:18.247Z,18.12
2019-05-19T00:19:50.036Z,18.14
2019-05-19T00:22:21.685Z,18.05
2019-05-19T00:24:53.549Z,18.00
2019-05-19T00:27:25.144Z,18.06
2019-05-19T00:29:56.653Z,18.08
2019-05-19T00:32:28.306Z,18.07
2019-05-19T00:35:00.175Z,18.04
2019-05-19T00:37:32.986Z,18.05
2019-05-19T00:40:08.536Z,18.03
2019-05-19T00:42:40.559Z,17.97
2019-05-19T00:45:12.807Z,17.97
2019-05-19T00:47:44.210Z,17.93
2019-05-19T00:50:16.101Z,17.95
2019-05-19T00:52:47.593Z,17.93
2019-05-19T00:55:19.300Z,17.83
2019-05-19T00:57:51.510Z,17.82
2019-05-19T01:00:23.070Z,17.76
2019-05-19T01:02:55.002Z,17.75
2019-05-19T01:05:27.506Z,17.73
2019-05-19T01:07:59.463Z,17.73
2019-05-19T01:10:31.191Z,17.71
2019-05-19T01:13:03.388Z,17.69
2019-05-19T01:15:35.042Z,17.63
2019-05-19T01:18:07.115Z,17.59
2019-05-19T01:20:38.664Z,17.57
2019-05-19T01:23:10.520Z,17.52
2019-05-19T01:25:42.296Z,17.45
2019-05-19T01:28:14.039Z,17.43
2019-05-19T01:30:46.407Z,17.44
2019-05-19T01:33:18.059Z,17.34
2019-05-19T01:35:49.728Z,17.29
2019-05-19T01:38:21.377Z,17.23
2019-05-19T01:40:53.280Z,17.21
2019-05-19T01:43:25.116Z,17.18
2019-05-19T01:45:56.543Z,17.19
2019-05-19T01:48:28.309Z,17.17
2019-05-19T01:51:00.198Z,17.14
2019-05-19T01:53:32.325Z,17.10
2019-05-19T01:56:05.223Z,17.06
2019-05-19T01:58:36.663Z,17.09
2019-05-19T02:01:08.374Z,17.08
2019-05-19T02:03:40.181Z,17.06
2019-05-19T02:06:12.036Z,16.96
2019-05-19T02:08:43.809Z,16.90
2019-05-19T02:11:15.585Z,16.91
2019-05-19T02:13:46.796Z,16.88
2019-05-19T02:16:18.307Z,16.83
2019-05-19T02:18:51.126Z,16.86
2019-05-19T02:21:23.094Z,16.83
2019-05-19T02:23:54.959Z,16.79
2019-05-19T02:26:26.654Z,16.69
2019-05-19T02:28:59.103Z,16.67
2019-05-19T02:31:30.722Z,16.71
2019-05-19T02:34:02.495Z,16.64
2019-05-19T02:36:34.239Z,16.64
2019-05-19T02:39:07.093Z,16.66
2019-05-19T02:41:40.120Z,16.65
2019-05-19T02:44:11.985Z,16.58
2019-05-19T02:46:44.152Z,16.55
2019-05-19T02:49:17.346Z,16.62
2019-05-19T02:51:51.389Z,16.63
2019-05-19T02:54:24.303Z,16.62
2019-05-19T02:56:56.297Z,16.55
2019-05-19T02:59:29.089Z,16.57
2019-05-19T03:02:02.327Z,16.56
2019-05-19T03:04:34.156Z,16.56
2019-05-19T03:07:05.995Z,16.54
2019-05-19T03:09:37.869Z,16.54
2019-05-19T03:12:09.616Z,16.56
2019-05-19T03:14:41.374Z,16.53
2019-05-19T03:17:13.243Z,16.51
2019-05-19T03:19:44.796Z,16.58
2019-05-19T03:22:16.545Z,16.55
2019-05-19T03:24:48.413Z,16.62
2019-05-19T03:27:20.057Z,16.68
2019-05-19T03:29:53.453Z,16.65
2019-05-19T03:32:26.678Z,16.69
2019-05-19T03:34:58.353Z,16.70
2019-05-19T03:37:30.269Z,16.72
2019-05-19T03:40:04.221Z,16.73
2019-05-19T03:42:35.737Z,16.78
2019-05-19T03:45:07.587Z,16.80
2019-05-19T03:47:39.206Z,16.91
2019-05-19T03:50:11.102Z,16.90
2019-05-19T03:52:42.954Z,16.92
2019-05-19T03:55:15.202Z,16.97
2019-05-19T03:57:46.774Z,16.99
2019-05-19T04:00:18.846Z,17.04
2019-05-19T04:02:50.256Z,17.14
2019-05-19T04:05:21.948Z,17.16
2019-05-19T04:07:53.911Z,17.23
2019-05-19T04:10:26.745Z,17.31
2019-05-19T04:12:58.807Z,17.34
2019-05-19T04:15:30.442Z,17.42
2019-05-19T04:18:02.071Z,17.56
2019-05-19T04:20:33.755Z,17.63
2019-05-19T04:23:05.498Z,17.70
2019-05-19T04:25:37.555Z,17.83
2019-05-19T04:28:09.160Z,17.89
2019-05-19T04:30:40.855Z,17.96
2019-05-19T04:33:12.794Z,18.04
2019-05-19T04:35:44.478Z,18.16
2019-05-19T04:38:16.215Z,18.23
2019-05-19T04:40:47.773Z,18.31
2019-05-19T04:43:19.646Z,18.40
2019-05-19T04:45:52.726Z,18.52
2019-05-19T04:48:24.589Z,18.58
2019-05-19T04:50:56.220Z,18.73
2019-05-19T04:53:27.955Z,18.75
2019-05-19T04:55:59.961Z,18.90
2019-05-19T04:58:31.942Z,19.00
2019-05-19T05:01:03.886Z,19.09
2019-05-19T05:03:36.371Z,19.14
2019-05-19T05:06:08.423Z,19.23
2019-05-19T05:08:40.078Z,19.27
2019-05-19T05:11:11.467Z,19.33
2019-05-19T05:13:43.206Z,19.36
2019-05-19T05:16:14.859Z,19.48
2019-05-19T05:18:47.916Z,19.49
2019-05-19T05:21:19.482Z,19.57
2019-05-19T05:23:51.751Z,19.66
2019-05-19T05:26:23.687Z,19.69
2019-05-19T05:28:55.179Z,19.74
2019-05-19T05:31:27.135Z,19.76
2019-05-19T05:33:58.682Z,19.87
2019-05-19T05:36:30.848Z,19.97
2019-05-19T05:39:02.710Z,20.00
2019-05-19T05:41:34.387Z,20.08
2019-05-19T05:44:05.918Z,20.20
2019-05-19T05:46:37.680Z,20.25
2019-05-19T05:49:09.573Z,20.27
2019-05-19T05:51:40.940Z,20.39
2019-05-19T05:54:12.435Z,20.42
2019-05-19T05:56:44.143Z,20.56
2019-05-19T05:59:16.172Z,20.67
2019-05-19T06:01:47.809Z,20.68
2019-05-19T06:04:19.665Z,20.75
2019-05-19T06:06:51.660Z,20.79
2019-05-19T06:09:23.487Z,20.82
2019-05-19T06:11:54.939Z,20.88
2019-05-19T06:14:26.907Z,20.99
2019-05-19T06:16:58.460Z,21.06
2019-05-19T06:19:39.540Z,21.09
2019-05-19T06:22:11.082Z,21.19
2019-05-19T06:24:42.637Z,21.25
2019-05-19T06:27:14.306Z,21.35
2019-05-19T06:29:45.951Z,21.46
2019-05-19T06:32:22.005Z,21.50
2019-05-19T06:34:54.074Z,21.53
2019-05-19T06:37:25.946Z,21.70
2019-05-19T06:39:57.687Z,21.78
2019-05-19T06:42:29.248Z,21.86
2019-05-19T06:45:01.076Z,21.85
2019-05-19T06:47:33.588Z,21.99
2019-05-19T06:50:07.001Z,22.12
2019-05-19T06:52:38.632Z,22.14
2019-05-19T06:55:10.658Z,22.22
2019-05-19T06:57:42.034Z,22.31
2019-05-19T07:00:14.601Z,22.38
2019-05-19T07:02:45.983Z,22.48
2019-05-19T07:05:18.341Z,22.58
2019-05-19T07:07:49.988Z,22.63
2019-05-19T07:10:21.890Z,22.68
2019-05-19T07:12:53.611Z,22.81
2019-05-19T07:15:25.061Z,22.83
2019-05-19T07:17:56.819Z,22.98
2019-05-19T07:20:28.489Z,23.09
2019-05-19T07:23:00.026Z,23.15
2019-05-19T07:25:31.779Z,23.12
2019-05-19T07:28:04.565Z,23.15
2019-05-19T07:30:36.431Z,23.24
2019-05-19T07:33:08.299Z,23.32
2019-05-19T07:35:39.988Z,23.34
2019-05-19T07:38:11.724Z,23.41
2019-05-19T07:40:43.352Z,23.41
2019-05-19T07:43:14.929Z,23.42
2019-05-19T07:45:46.693Z,23.52
2019-05-19T07:48:18.111Z,23.55
2019-05-19T07:50:49.970Z,23.61
2019-05-19T07:53:21.569Z,23.71
2019-05-19T07:55:53.405Z,23.87
2019-05-19T07:58:25.142Z,23.92
2019-05-19T08:00:56.856Z,24.00
2019-05-19T08:03:28.658Z,23.97
2019-05-19T08:06:00.409Z,24.00
2019-05-19T08:08:32.330Z,24.10
2019-05-19T08:11:04.032Z,24.17
2019-05-19T08:13:35.691Z,24.33
2019-05-19T08:16:07.543Z,24.36
2019-05-19T08:18:39.211Z,24.43
2019-05-19T08:21:10.852Z,24.48
2019-05-19T08:23:56.841Z,24.59
2019-05-19T08:26:17.919Z,24.63
2019-05-19T08:28:49.466Z,24.79
2019-05-19T08:31:21.271Z,24.93
2019-05-19T08:33:52.839Z,24.99
2019-05-19T08:36:24.372Z,25.15
2019-05-19T08:38:56.139Z,25.28
2019-05-19T08:41:27.630Z,25.31
2019-05-19T08:43:59.131Z,25.31
2019-05-19T08:46:31.298Z,25.41
2019-05-19T08:49:02.952Z,25.50
2019-05-19T08:51:34.603Z,25.51
2019-05-19T08:54:14.401Z,25.62
2019-05-19T08:56:39.781Z,25.73
2019-05-19T08:59:11.450Z,25.87
2019-05-19T09:01:43.244Z,25.85
2019-05-19T09:04:15.985Z,25.94
2019-05-19T09:06:47.721Z,25.92
2019-05-19T09:09:19.471Z,26.04
2019-05-19T09:11:51.170Z,26.16
2019-05-19T09:14:22.899Z,26.25
2019-05-19T09:16:54.439Z,26.20
2019-05-19T09:19:26.203Z,26.42
2019-05-19T09:21:58.081Z,26.51
2019-05-19T09:24:31.095Z,26.55
2019-05-19T09:27:02.593Z,26.62
2019-05-19T09:29:35.930Z,26.62
2019-05-19T09:32:07.778Z,26.70
2019-05-19T09:34:39.193Z,26.77
2019-05-19T09:37:11.036Z,26.71
2019-05-19T09:39:42.363Z,26.76
2019-05-19T09:42:13.863Z,26.65
2019-05-19T09:44:45.311Z,26.61
2019-05-19T09:47:16.771Z,26.58
2019-05-19T09:49:48.515Z,26.64
2019-05-19T09:52:20.170Z,26.67
2019-05-19T09:54:51.637Z,26.76
2019-05-19T09:57:23.291Z,26.74
2019-05-19T09:59:55.056Z,26.81
2019-05-19T10:02:26.787Z,26.77
2019-05-19T10:04:58.470Z,26.67
2019-05-19T10:07:30.233Z,26.61
2019-05-19T10:10:03.607Z,26.83
2019-05-19T10:12:35.062Z,26.78
2019-05-19T10:15:07.392Z,26.84
2019-05-19T10:17:38.870Z,27.05
2019-05-19T10:20:10.939Z,26.96
2019-05-19T10:22:42.492Z,26.97
2019-05-19T10:25:22.054Z,27.02
2019-05-19T10:27:49.269Z,27.05
2019-05-19T10:30:20.655Z,27.10
2019-05-19T10:32:52.385Z,27.05
2019-05-19T10:35:24.309Z,26.98
2019-05-19T10:37:55.903Z,26.93
2019-05-19T10:40:27.520Z,26.94
2019-05-19T10:42:59.226Z,26.87
2019-05-19T10:45:30.773Z,26.81
2019-05-19T10:48:02.594Z,26.83
2019-05-19T10:50:34.291Z,26.77
2019-05-19T10:53:05.942Z,26.86
2019-05-19T10:55:37.594Z,26.76
2019-05-19T10:58:12.011Z,26.73
2019-05-19T11:00:43.465Z,26.77
2019-05-19T11:03:15.060Z,26.82
2019-05-19T11:05:46.769Z,26.79
2019-05-19T11:08:18.542Z,26.79
2019-05-19T11:10:50.624Z,26.75
2019-05-19T11:13:23.330Z,26.71
2019-05-19T11:15:55.030Z,26.81
2019-05-19T11:18:26.823Z,26.66
2019-05-19T11:20:58.667Z,26.72
2019-05-19T11:23:30.269Z,26.78
2019-05-19T11:26:01.654Z,26.77
2019-05-19T11:28:33.528Z,26.66
2019-05-19T11:31:05.066Z,26.53
2019-05-19T11:33:36.899Z,26.38
2019-05-19T11:36:08.897Z,26.42
2019-05-19T11:38:40.444Z,26.37
2019-05-19T11:41:12.262Z,26.41
2019-05-19T11:43:43.853Z,26.53
2019-05-19T11:46:15.618Z,26.55
2019-05-19T11:48:47.463Z,26.54
2019-05-19T11:51:19.132Z,26.53
2019-05-19T11:53:51.048Z,26.61
2019-05-19T11:56:22.776Z,26.73
2019-05-19T11:58:54.340Z,26.69
2019-05-19T12:01:25.943Z,26.71
2019-05-19T12:03:57.905Z,26.76
2019-05-19T12:06:39.491Z,26.77
2019-05-19T12:09:04.916Z,26.66
2019-05-19T12:11:37.588Z,26.70
2019-05-19T12:14:09.471Z,26.60
2019-05-19T12:16:41.073Z,26.68
2019-05-19T12:19:13.066Z,26.66
2019-05-19T12:21:44.820Z,26.72
2019-05-19T12:24:17.094Z,26.67
2019-05-19T12:26:48.549Z,26.88
2019-05-19T12:29:20.509Z,26.84
2019-05-19T12:31:52.158Z,26.81
2019-05-19T12:34:23.602Z,26.72
2019-05-19T12:36:54.955Z,26.78
2019-05-19T12:39:26.693Z,26.80
2019-05-19T12:41:58.477Z,26.77
2019-05-19T12:44:30.231Z,26.79
2019-05-19T12:47:02.008Z,26.81
2019-05-19T12:49:33.957Z,26.81
2019-05-19T12:52:05.406Z,26.78
2019-05-19T12:54:37.074Z,26.79
2019-05-19T12:57:09.130Z,26.80
2019-05-19T12:59:40.752Z,26.81
2019-05-19T13:02:12.232Z,26.86
2019-05-19T13:04:44.101Z,26.78
2019-05-19T13:07:15.844Z,26.72
2019-05-19T13:09:47.517Z,26.81
2019-05-19T13:12:19.167Z,26.71
2019-05-19T13:14:50.725Z,26.84
2019-05-19T13:17:22.464Z,26.81
2019-05-19T13:19:54.623Z,26.71
2019-05-19T13:22:26.207Z,26.69
2019-05-19T13:24:57.955Z,26.60
2019-05-19T13:27:29.699Z,26.56
2019-05-19T13:30:01.535Z,26.51
2019-05-19T13:32:33.419Z,26.46
2019-05-19T13:35:07.200Z,26.50
2019-05-19T13:37:40.206Z,26.49
2019-05-19T13:40:12.393Z,26.56
2019-05-19T13:42:44.154Z,26.53
2019-05-19T13:45:16.181Z,26.48
2019-05-19T13:47:48.062Z,26.49
2019-05-19T13:50:20.939Z,26.44
2019-05-19T13:52:52.494Z,26.48
2019-05-19T13:55:24.172Z,26.46
2019-05-19T13:57:55.800Z,26.40
2019-05-19T14:00:27.929Z,26.35
2019-05-19T14:02:59.419Z,26.37
2019-05-19T14:05:31.074Z,26.31
2019-05-19T14:08:02.853Z,26.29
2019-05-19T14:10:34.494Z,26.35
2019-05-19T14:13:06.246Z,26.33
2019-05-19T14:15:37.926Z,26.35
2019-05-19T14:18:09.476Z,26.22
2019-05-19T14:20:41.259Z,26.18
2019-05-19T14:23:12.548Z,26.19
2019-05-19T14:25:44.074Z,26.20
2019-05-19T14:28:15.502Z,26.24
2019-05-19T14:30:47.013Z,26.22
2019-05-19T14:33:18.406Z,26.16
2019-05-19T14:35:49.847Z,26.10
2019-05-19T14:38:21.483Z,26.05
2019-05-19T14:40:53.325Z,25.95
2019-05-19T14:43:26.517Z,25.92
2019-05-19T14:45:58.234Z,25.98
2019-05-19T14:48:29.936Z,25.96
2019-05-19T14:51:01.898Z,25.97
2019-05-19T14:53:34.696Z,26.03
2019-05-19T14:56:06.740Z,25.84
2019-05-19T14:58:38.265Z,25.85
2019-05-19T15:01:10.369Z,25.81
2019-05-19T15:03:42.013Z,25.79
2019-05-19T15:06:13.712Z,25.80
2019-05-19T15:08:45.530Z,25.76
2019-05-19T15:11:17.310Z,25.75
2019-05-19T15:13:49.861Z,25.74
2019-05-19T15:16:21.671Z,25.66
2019-05-19T15:18:53.287Z,25.73
2019-05-19T15:21:25.263Z,25.68
2019-05-19T15:23:57.064Z,25.67
2019-05-19T15:26:28.594Z,25.62
2019-05-19T15:29:00.566Z,25.60
2019-05-19T15:31:32.084Z,25.51
2019-05-19T15:34:03.481Z,25.47
2019-05-19T15:36:35.067Z,25.39
2019-05-19T15:39:07.136Z,25.36
2019-05-19T15:41:38.805Z,25.37
2019-05-19T15:44:10.548Z,25.27
2019-05-19T15:46:43.310Z,25.23
2019-05-19T15:49:18.191Z,25.24
2019-05-19T15:52:01.535Z,25.29
2019-05-19T15:54:33.359Z,25.24
2019-05-19T15:57:09.257Z,25.20
2019-05-19T15:59:44.529Z,25.12
2019-05-19T16:02:21.194Z,24.97
2019-05-19T16:05:00.156Z,24.96
2019-05-19T16:07:33.583Z,24.95
2019-05-19T16:10:09.949Z,24.96
2019-05-19T16:12:42.520Z,24.88
2019-05-19T16:15:16.943Z,24.80
2019-05-19T16:17:49.705Z,24.83
2019-05-19T16:20:22.582Z,24.80
2019-05-19T16:22:56.270Z,24.73
2019-05-19T16:25:29.538Z,24.69
2019-05-19T16:28:05.142Z,24.67
2019-05-19T16:30:38.491Z,24.60
2019-05-19T16:33:10.115Z,24.51
2019-05-19T16:35:43.087Z,24.50
2019-05-19T16:38:15.008Z,24.45
2019-05-19T16:40:46.659Z,24.39
2019-05-19T16:43:18.454Z,24.39
2019-05-19T16:45:50.278Z,24.35
2019-05-19T16:48:23.480Z,24.28
2019-05-19T16:50:55.127Z,24.22
2019-05-19T16:53:26.937Z,24.16
2019-05-19T16:55:58.617Z,24.11
2019-05-19T16:58:43.072Z,24.04
2019-05-19T17:01:04.921Z,23.95
2019-05-19T17:03:37.597Z,23.87
2019-05-19T17:06:09.160Z,23.80
2019-05-19T17:08:41.140Z,23.75
2019-05-19T17:11:18.236Z,23.72
2019-05-19T17:13:46.297Z,23.64
2019-05-19T17:16:18.053Z,23.57
2019-05-19T17:18:49.758Z,23.54
2019-05-19T17:21:21.667Z,23.48
2019-05-19T17:23:53.404Z,23.38
2019-05-19T17:26:25.294Z,23.31
2019-05-19T17:29:00.626Z,23.23
2019-05-19T17:31:30.074Z,23.10
2019-05-19T17:34:03.293Z,23.06
2019-05-19T17:36:34.781Z,23.00
2019-05-19T17:39:07.556Z,22.92
2019-05-19T17:41:39.084Z,22.86
2019-05-19T17:44:10.685Z,22.79
2019-05-19T17:46:42.497Z,22.70
2019-05-19T17:49:14.226Z,22.67
2019-05-19T17:51:45.803Z,22.63
2019-05-19T17:54:20.145Z,22.56
2019-05-19T17:56:53.166Z,22.49
2019-05-19T17:59:26.132Z,22.46
2019-05-19T18:01:57.861Z,22.34
2019-05-19T18:04:30.364Z,22.27
2019-05-19T18:07:02.134Z,22.14
2019-05-19T18:09:34.145Z,22.13
2019-05-19T18:12:05.974Z,22.12
2019-05-19T18:14:37.464Z,22.08
2019-05-19T18:17:09.123Z,22.06
2019-05-19T18:19:41.166Z,21.95
2019-05-19T18:22:12.942Z,21.96
2019-05-19T18:24:44.655Z,21.90
2019-05-19T18:27:16.246Z,21.84
2019-05-19T18:29:47.821Z,21.79
2019-05-19T18:32:19.265Z,21.73
2019-05-19T18:34:51.111Z,21.71
2019-05-19T18:37:22.898Z,21.64
2019-05-19T18:39:54.304Z,21.62
2019-05-19T18:42:25.785Z,21.58
2019-05-19T18:44:57.734Z,21.50
2019-05-19T18:47:29.393Z,21.51
2019-05-19T18:50:01.266Z,21.44
2019-05-19T18:52:33.048Z,21.40
2019-05-19T18:55:07.038Z,21.32
2019-05-19T18:57:38.462Z,21.29
2019-05-19T19:00:10.638Z,21.20
2019-05-19T19:02:42.492Z,21.11
2019-05-19T19:05:14.383Z,21.08
2019-05-19T19:07:50.523Z,21.03
2019-05-19T19:10:22.101Z,20.97
2019-05-19T19:12:53.920Z,20.90
2019-05-19T19:15:25.491Z,20.84
2019-05-19T19:17:57.036Z,20.79
2019-05-19T19:20:28.886Z,20.78
2019-05-19T19:23:00.687Z,20.71
2019-05-19T19:25:32.323Z,20.68
2019-05-19T19:28:03.657Z,20.66
2019-05-19T19:30:35.337Z,20.59
2019-05-19T19:33:07.169Z,20.54
2019-05-19T19:35:39.837Z,20.56
2019-05-19T19:38:11.341Z,20.59
2019-05-19T19:40:42.891Z,20.57
2019-05-19T19:43:14.640Z,20.58
2019-05-19T19:45:46.514Z,20.60
2019-05-19T19:48:18.221Z,20.54
2019-05-19T19:50:51.826Z,20.55
2019-05-19T19:53:25.023Z,20.49
2019-05-19T19:55:56.575Z,20.50
2019-05-19T19:58:28.325Z,20.48
2019-05-19T20:01:00.806Z,20.42
2019-05-19T20:03:32.470Z,20.35
2019-05-19T20:06:04.143Z,20.26
2019-05-19T20:08:36.078Z,20.34
2019-05-19T20:11:08.040Z,20.21
2019-05-19T20:13:39.998Z,20.24
2019-05-19T20:16:11.935Z,20.24
2019-05-19T20:18:43.444Z,20.19
2019-05-19T20:21:15.275Z,20.19
2019-05-19T20:23:46.721Z,20.10
2019-05-19T20:26:18.954Z,20.08
2019-05-19T20:28:50.853Z,20.06
2019-05-19T20:31:22.956Z,20.01
2019-05-19T20:33:54.776Z,19.99
2019-05-19T20:36:26.609Z,19.95
2019-05-19T20:38:58.312Z,19.93
2019-05-19T20:41:30.377Z,19.90
2019-05-19T20:44:01.911Z,19.86
2019-05-19T20:46:33.516Z,19.82
2019-05-19T20:49:05.947Z,19.76
2019-05-19T20:51:37.764Z,19.70
2019-05-19T20:54:09.649Z,19.66
2019-05-19T20:56:41.376Z,19.62
2019-05-19T20:59:13.117Z,19.57
2019-05-19T21:01:45.140Z,19.55
2019-05-19T21:04:17.829Z,19.53
2019-05-19T21:06:49.706Z,19.51
2019-05-19T21:09:21.544Z,19.51
2019-05-19T21:11:53.182Z,19.54
2019-05-19T21:14:25.041Z,19.51
2019-05-19T21:16:57.031Z,19.56
2019-05-19T21:19:28.872Z,19.53
2019-05-19T21:22:00.523Z,19.56
2019-05-19T21:24:32.406Z,19.46
2019-05-19T21:27:04.248Z,19.38
2019-05-19T21:29:36.207Z,19.37
2019-05-19T21:32:08.162Z,19.32
2019-05-19T21:34:39.637Z,19.32
2019-05-19T21:37:11.194Z,19.24
2019-05-19T21:39:43.032Z,19.21
2019-05-19T21:42:16.047Z,19.17
2019-05-19T21:44:47.769Z,19.09
2019-05-19T21:47:19.676Z,19.07
2019-05-19T21:49:51.389Z,19.04
2019-05-19T21:52:23.210Z,18.95
2019-05-19T21:54:55.218Z,18.90
2019-05-19T21:57:26.731Z,18.82
2019-05-19T21:59:58.220Z,18.79
2019-05-19T22:02:30.358Z,18.74
2019-05-19T22:05:02.143Z,18.74
2019-05-19T22:07:52.921Z,18.73
2019-05-19T22:10:24.349Z,18.65
2019-05-19T22:12:56.284Z,18.56
2019-05-19T22:15:28.013Z,18.52
2019-05-19T22:18:00.000Z,18.48
2019-05-19T22:20:31.857Z,18.47
2019-05-19T22:23:03.489Z,18.36
2019-05-19T22:25:35.233Z,18.35
2019-05-19T22:28:07.106Z,18.28
2019-05-19T22:30:39.175Z,18.27
2019-05-19T22:33:10.829Z,18.22
2019-05-19T22:35:42.586Z,18.18
2019-05-19T22:38:14.020Z,18.16
2019-05-19T22:40:45.488Z,18.15
2019-05-19T22:43:17.371Z,18.09
2019-05-19T22:45:49.311Z,18.10
2019-05-19T22:48:20.889Z,18.09
2019-05-19T22:50:53.256Z,18.04
2019-05-19T22:53:24.789Z,18.03
2019-05-19T22:55:56.647Z,17.94
2019-05-19T22:58:28.924Z,17.95
2019-05-19T23:01:00.877Z,17.96
2019-05-19T23:03:32.404Z,17.94
2019-05-19T23:06:04.320Z,17.93
2019-05-19T23:08:37.433Z,17.95
2019-05-19T23:11:09.239Z,17.87
2019-05-19T23:13:41.054Z,17.85
2019-05-19T23:16:12.678Z,17.83
2019-05-19T23:18:44.736Z,17.80
2019-05-19T23:21:16.276Z,17.78
2019-05-19T23:23:49.437Z,17.83
2019-05-19T23:26:21.333Z,17.78
2019-05-19T23:28:53.798Z,17.76
2019-05-19T23:31:25.485Z,17.77
2019-05-19T23:33:57.553Z,17.72
2019-05-19T23:36:29.557Z,17.73
2019-05-19T23:39:01.271Z,17.68
2019-05-19T23:41:33.297Z,17.73
2019-05-19T23:44:05.397Z,17.68
2019-05-19T23:46:37.236Z,17.67
2019-05-19T23:49:09.287Z,17.63
2019-05-19T23:51:41.661Z,17.53
2019-05-19T23:54:13.744Z,17.52
2019-05-19T23:56:46.947Z,17.50
2019-05-19T23:59:18.710Z,17.44
